Fairdale, West Virginia
Current Conditions -  °F | °C
As of 2:51 PM on Monday 26 Jan 2015 (Local Time) from KBKW Reporting Station
Light Snow Light Snow  
Wind Chill: 20°   Ceiling: 800
Heat Index: 29°   Visibility: 3mi
Dew Point: 25°   Wind: 10mph
Humidity: 85%   Direction: 290°WNW
Pressure: 29.66"   Gusts: NA
Location:  37.78°N, 81.36°W
Report Text: KBKW 261951Z AUTO 29009KT 3SM -SN BR OVC008 M02/M04 A2966 RMK AO2 SLP064 P0001 T10171039
Loading
Personal Weather Stations






























Interactive Weather Map New forecast layout! Learn more

10-Day Weather Forecast

Advertisements
Track Severe Weather on mobile